Time;durP1;ratioP1;P1;durP2;ratioP2;P2;SDS_P1;SDS_P2;PMS_P1;PMS_P2;Temp;Humidity;BMP_temperature;BMP_pressure;BME280_temperature;BME280_humidity;BME280_pressure;Samples;Min_cycle;Max_cycle;Signal;HPM_P1;HPM_P2
2022/02/14 00:02:19;;;;;;;;;;;0.70;99.90;;;;;;5016790;28;19952;-51
2022/02/14 00:04:44;;;;;;;;;;;0.70;99.90;;;;;;5020369;28;19925;-52
2022/02/14 00:07:10;;;;;;;;;;;0.70;99.90;;;;;;5018332;28;19909;-51
2022/02/14 00:09:35;;;;;;;;;;;0.70;99.90;;;;;;5021145;28;19917;-51
2022/02/14 00:12:01;;;;;;;;;;;0.60;99.90;;;;;;5022068;28;19917;-51
2022/02/14 00:14:27;;;;;;;;;;;0.60;99.90;;;;;;5014838;28;19965;-51
2022/02/14 00:16:53;;;;;;;;;;;0.60;99.90;;;;;;5020932;28;19956;-50
2022/02/14 00:19:19;;;;;;;;;;;0.60;99.90;;;;;;5013587;28;19917;-53
2022/02/14 00:21:45;;;;;;;;;;;0.60;99.90;;;;;;5018038;28;19909;-51
2022/02/14 00:24:10;;;;;;;;;;;0.60;99.90;;;;;;5014208;28;20301;-51
2022/02/14 00:26:37;;;;;;;;;;;0.60;99.90;;;;;;5019322;28;20360;-51
2022/02/14 00:29:04;;;;;;;;;;;0.60;99.90;;;;;;5019363;28;20200;-51
2022/02/14 00:31:30;;;;;;;;;;;0.60;99.90;;;;;;5020384;28;20112;-51
2022/02/14 00:33:55;;;;;;;;;;;0.60;99.90;;;;;;5018096;28;20363;-51
2022/02/14 00:36:21;;;;;;;;;;;0.60;99.90;;;;;;5022147;28;19909;-51
2022/02/14 00:38:46;;;;;;;;;;;0.60;99.90;;;;;;5019298;28;20345;-51
2022/02/14 00:41:12;;;;;;;;;;;0.60;99.90;;;;;;5024509;28;19913;-51
2022/02/14 00:43:37;;;;;;;;;;;0.50;99.90;;;;;;5021039;28;20291;-51
2022/02/14 00:46:03;;;;;;;;;;;0.50;99.90;;;;;;5019184;28;19933;-50
2022/02/14 00:48:29;;;;;;;;;;;0.40;99.90;;;;;;5019485;28;20421;-51
2022/02/14 00:50:54;;;;;;;;;;;0.20;99.90;;;;;;5019893;28;19935;-51
2022/02/14 00:53:20;;;;;;;;;;;0.00;99.90;;;;;;5022762;28;19910;-51
2022/02/14 00:55:46;;;;;;;;;;;-0.10;99.90;;;;;;5018600;28;19909;-51
2022/02/14 00:58:14;;;;;;;;;;;-0.10;99.90;;;;;;5013311;28;20303;-51
2022/02/14 01:00:39;;;;;;;;;;;-0.10;99.90;;;;;;5014410;28;19909;-51
2022/02/14 01:03:06;;;;;;;;;;;-0.10;99.90;;;;;;5026023;28;19956;-51
2022/02/14 01:05:32;;;;;;;;;;;-0.10;99.90;;;;;;5017990;28;19910;-51
2022/02/14 01:07:57;;;;;;;;;;;0.00;99.90;;;;;;5023245;28;20302;-51
2022/02/14 01:10:23;;;;;;;;;;;0.10;99.90;;;;;;5010604;28;19913;-51
2022/02/14 01:12:48;;;;;;;;;;;0.20;99.90;;;;;;5020003;28;20313;-51
2022/02/14 01:15:14;;;;;;;;;;;0.20;99.90;;;;;;5018614;28;19909;-52
2022/02/14 01:17:40;;;;;;;;;;;0.00;99.90;;;;;;5024357;28;20250;-51
2022/02/14 01:20:07;;;;;;;;;;;-0.10;99.90;;;;;;5024457;28;19916;-51
2022/02/14 01:22:34;;;;;;;;;;;-0.20;99.90;;;;;;5023487;28;19955;-51
2022/02/14 01:24:59;;;;;;;;;;;-0.20;99.90;;;;;;5019075;28;19944;-51
2022/02/14 01:27:25;;;;;;;;;;;-0.20;99.90;;;;;;5019258;28;20003;-51
2022/02/14 01:29:51;;;;;;;;;;;-0.20;99.90;;;;;;5024149;28;19965;-51
2022/02/14 01:32:22;;;;;;;;;;;-0.10;99.90;;;;;;5021915;28;19917;-51
2022/02/14 01:34:51;;;;;;;;;;;-0.10;99.90;;;;;;5024469;28;19909;-51
2022/02/14 01:37:17;;;;;;;;;;;-0.10;99.90;;;;;;5020765;28;19909;-51
2022/02/14 01:39:43;;;;;;;;;;;-0.10;99.90;;;;;;5024324;28;19910;-50
2022/02/14 01:42:08;;;;;;;;;;;0.00;99.90;;;;;;5016652;28;19910;-51
2022/02/14 01:44:36;;;;;;;;;;;0.00;99.90;;;;;;5021908;28;19940;-51
2022/02/14 01:47:02;;;;;;;;;;;0.00;99.90;;;;;;5030779;28;19913;-51
2022/02/14 01:49:27;;;;;;;;;;;-0.10;99.90;;;;;;5030050;28;19916;-52
2022/02/14 01:51:53;;;;;;;;;;;-0.10;99.90;;;;;;5031607;28;19980;-51
2022/02/14 01:54:19;;;;;;;;;;;0.00;99.90;;;;;;5030630;28;19917;-51
2022/02/14 01:56:44;;;;;;;;;;;0.00;99.90;;;;;;5031155;28;19909;-51
2022/02/14 01:59:10;;;;;;;;;;;0.00;99.90;;;;;;5031513;28;19909;-51
2022/02/14 02:01:35;;;;;;;;;;;0.00;99.90;;;;;;5004652;28;19914;-49
2022/02/14 02:04:00;;;;;;;;;;;0.00;99.90;;;;;;4999151;28;20274;-49
2022/02/14 02:06:26;;;;;;;;;;;0.10;99.90;;;;;;5005173;28;19910;-49
2022/02/14 02:08:52;;;;;;;;;;;0.10;99.90;;;;;;5004041;28;20348;-48
2022/02/14 02:14:02;;;;;;;;;;;0.10;99.90;;;;;;5008688;28;19937;-49
2022/02/14 02:16:27;;;;;;;;;;;0.10;99.90;;;;;;5001271;28;19913;-49
2022/02/14 02:18:53;;;;;;;;;;;0.10;99.90;;;;;;5005877;28;19913;-49
2022/02/14 02:21:19;;;;;;;;;;;0.10;99.90;;;;;;5017639;28;19940;-49
2022/02/14 02:23:47;;;;;;;;;;;0.00;99.90;;;;;;5000747;28;19916;-49
2022/02/14 02:26:12;;;;;;;;;;;0.00;99.90;;;;;;4996196;28;19914;-49
2022/02/14 02:28:38;;;;;;;;;;;-0.10;99.90;;;;;;5005947;28;20016;-48
2022/02/14 02:31:04;;;;;;;;;;;-0.20;99.90;;;;;;4995405;28;19918;-48
2022/02/14 02:33:31;;;;;;;;;;;-0.30;99.90;;;;;;4993978;28;19945;-49
2022/02/14 02:35:57;;;;;;;;;;;-0.30;99.90;;;;;;4998599;28;20408;-49
2022/02/14 02:38:23;;;;;;;;;;;-0.30;99.90;;;;;;5008690;28;19917;-48
2022/02/14 02:40:49;;;;;;;;;;;-0.30;99.90;;;;;;4999529;28;20369;-49
2022/02/14 02:43:15;;;;;;;;;;;-0.30;99.90;;;;;;5003081;28;19909;-48
2022/02/14 02:45:41;;;;;;;;;;;-0.30;99.90;;;;;;5003503;28;19913;-49
2022/02/14 02:48:06;;;;;;;;;;;-0.40;99.90;;;;;;5001954;28;19920;-49
2022/02/14 02:50:32;;;;;;;;;;;-0.40;99.90;;;;;;5003350;28;19998;-48
2022/02/14 02:52:57;;;;;;;;;;;-0.50;99.90;;;;;;5000796;28;19955;-49
2022/02/14 02:55:23;;;;;;;;;;;-0.60;99.90;;;;;;4998664;28;19917;-49
2022/02/14 02:57:48;;;;;;;;;;;-0.60;99.90;;;;;;5003917;28;19956;-49
2022/02/14 03:00:14;;;;;;;;;;;-0.60;99.90;;;;;;4997318;28;20015;-49
2022/02/14 03:02:39;;;;;;;;;;;-0.60;99.90;;;;;;4999240;28;19924;-49
2022/02/14 03:05:05;;;;;;;;;;;-0.60;99.90;;;;;;5006554;28;19921;-49
2022/02/14 03:07:30;;;;;;;;;;;-0.60;99.90;;;;;;5000582;28;20404;-49
2022/02/14 03:09:56;;;;;;;;;;;-0.70;99.90;;;;;;5003728;28;20004;-49
2022/02/14 03:12:21;;;;;;;;;;;-0.60;99.90;;;;;;5007004;28;19921;-49
2022/02/14 03:14:47;;;;;;;;;;;-0.60;99.90;;;;;;5009109;28;19909;-49
2022/02/14 03:17:13;;;;;;;;;;;-0.60;99.90;;;;;;4998230;28;19917;-49
2022/02/14 03:19:38;;;;;;;;;;;-0.60;99.90;;;;;;5006453;28;20023;-49
2022/02/14 03:22:04;;;;;;;;;;;-0.60;99.90;;;;;;5000859;28;20530;-51
2022/02/14 03:24:30;;;;;;;;;;;-0.60;99.90;;;;;;5009018;28;19914;-49
2022/02/14 03:26:56;;;;;;;;;;;-0.60;99.90;;;;;;5002866;28;19925;-49
2022/02/14 03:29:22;;;;;;;;;;;-0.70;99.90;;;;;;5005881;28;19913;-49
2022/02/14 03:31:47;;;;;;;;;;;-0.70;99.90;;;;;;5005671;28;20008;-49
2022/02/14 03:34:13;;;;;;;;;;;-0.70;99.90;;;;;;4998709;28;19920;-50
2022/02/14 03:36:38;;;;;;;;;;;-0.90;99.90;;;;;;5003529;28;19971;-49
2022/02/14 03:39:04;;;;;;;;;;;-1.00;99.90;;;;;;5006912;28;19920;-49
2022/02/14 03:41:30;;;;;;;;;;;-1.00;99.90;;;;;;5005100;28;19913;-49
2022/02/14 03:43:56;;;;;;;;;;;-1.00;99.90;;;;;;5002438;28;20345;-51
2022/02/14 03:46:21;;;;;;;;;;;-0.90;99.90;;;;;;4999268;28;19917;-49
2022/02/14 03:48:47;;;;;;;;;;;-1.00;99.90;;;;;;5000299;28;19920;-49
2022/02/14 03:51:12;;;;;;;;;;;-1.10;99.90;;;;;;4998447;28;19925;-49
2022/02/14 03:53:38;;;;;;;;;;;-1.10;99.90;;;;;;5001380;28;20022;-50
2022/02/14 03:56:05;;;;;;;;;;;-1.10;99.90;;;;;;4999323;28;19917;-50
2022/02/14 03:58:30;;;;;;;;;;;-1.00;99.90;;;;;;5002578;28;19997;-50
2022/02/14 04:00:56;;;;;;;;;;;-1.00;99.90;;;;;;5003692;28;20051;-50
2022/02/14 04:03:21;;;;;;;;;;;-1.00;99.90;;;;;;5004888;28;20032;-49
2022/02/14 04:05:47;;;;;;;;;;;-1.00;99.90;;;;;;4999168;28;20369;-49
2022/02/14 04:08:13;;;;;;;;;;;-0.90;99.90;;;;;;5000970;28;19917;-50
2022/02/14 04:10:39;;;;;;;;;;;-0.90;99.90;;;;;;5004961;28;19924;-48
2022/02/14 04:13:05;;;;;;;;;;;-1.00;99.90;;;;;;4997848;28;19925;-49
2022/02/14 04:15:30;;;;;;;;;;;-1.00;99.90;;;;;;5007243;28;19913;-49
2022/02/14 04:17:56;;;;;;;;;;;-1.00;99.90;;;;;;5003325;28;19909;-49
2022/02/14 04:20:22;;;;;;;;;;;-1.00;99.90;;;;;;5005597;28;19917;-49
2022/02/14 04:22:47;;;;;;;;;;;-1.10;99.90;;;;;;5005813;28;19932;-49
2022/02/14 04:25:13;;;;;;;;;;;-1.10;99.90;;;;;;5000597;28;19987;-49
2022/02/14 04:27:41;;;;;;;;;;;-1.00;99.90;;;;;;5004483;28;19920;-49
2022/02/14 04:30:07;;;;;;;;;;;-1.10;99.90;;;;;;5005725;28;19925;-50
2022/02/14 04:32:33;;;;;;;;;;;-1.10;99.90;;;;;;4998543;28;19917;-49
2022/02/14 04:34:59;;;;;;;;;;;-1.10;99.90;;;;;;5002415;28;19913;-49
2022/02/14 04:37:25;;;;;;;;;;;-1.10;99.90;;;;;;5007106;28;19910;-50
2022/02/14 04:39:50;;;;;;;;;;;-1.00;99.90;;;;;;5005087;28;19914;-49
2022/02/14 04:42:16;;;;;;;;;;;-1.00;99.90;;;;;;5004170;28;19909;-50
2022/02/14 04:44:41;;;;;;;;;;;-1.00;99.90;;;;;;5004315;28;19940;-49
2022/02/14 04:47:07;;;;;;;;;;;-1.00;99.90;;;;;;5003968;28;19910;-49
2022/02/14 04:49:32;;;;;;;;;;;-0.90;99.90;;;;;;5001760;28;19940;-49
2022/02/14 04:51:58;;;;;;;;;;;-0.90;99.90;;;;;;5016667;28;19923;-49
2022/02/14 04:54:23;;;;;;;;;;;-0.90;99.90;;;;;;5004035;28;20378;-51
2022/02/14 04:56:49;;;;;;;;;;;-1.00;99.90;;;;;;5006122;28;20224;-49
2022/02/14 04:59:14;;;;;;;;;;;-1.00;99.90;;;;;;5006315;28;19989;-51
2022/02/14 05:01:43;;;;;;;;;;;-1.10;99.90;;;;;;5001366;28;19922;-49
2022/02/14 05:04:09;;;;;;;;;;;-1.20;99.90;;;;;;5005898;28;19953;-49
2022/02/14 05:06:34;;;;;;;;;;;-1.10;99.90;;;;;;5005587;28;19944;-50
2022/02/14 05:09:00;;;;;;;;;;;-1.20;99.90;;;;;;5005338;28;20285;-49
2022/02/14 05:11:26;;;;;;;;;;;-1.20;99.90;;;;;;5001887;28;19925;-48
2022/02/14 05:13:51;;;;;;;;;;;-1.20;99.90;;;;;;5001815;28;19921;-49
2022/02/14 05:16:22;;;;;;;;;;;-1.20;99.90;;;;;;4999739;28;19913;-50
2022/02/14 05:18:47;;;;;;;;;;;-1.20;99.90;;;;;;5006272;28;19913;-49
2022/02/14 05:21:13;;;;;;;;;;;-1.20;99.90;;;;;;5006090;28;19928;-48
2022/02/14 05:23:38;;;;;;;;;;;-1.20;99.90;;;;;;5000473;28;19917;-48
2022/02/14 05:26:06;;;;;;;;;;;-1.40;99.90;;;;;;5003684;28;20385;-50
2022/02/14 05:28:32;;;;;;;;;;;-1.40;99.90;;;;;;5004283;28;19936;-49
2022/02/14 05:30:57;;;;;;;;;;;-1.30;99.90;;;;;;4996882;28;19921;-50
2022/02/14 05:33:22;;;;;;;;;;;-1.30;99.90;;;;;;5002858;28;20107;-50
2022/02/14 05:35:48;;;;;;;;;;;-1.20;99.90;;;;;;5000249;28;19913;-51
2022/02/14 05:38:13;;;;;;;;;;;-1.10;99.90;;;;;;5003658;28;19991;-50
2022/02/14 05:40:39;;;;;;;;;;;-1.10;99.90;;;;;;5000293;28;19917;-51
2022/02/14 05:43:04;;;;;;;;;;;-1.10;99.90;;;;;;5000804;28;19913;-51
2022/02/14 05:45:30;;;;;;;;;;;-1.00;99.90;;;;;;5006094;28;19913;-50
2022/02/14 05:47:55;;;;;;;;;;;-1.00;99.90;;;;;;5001476;28;19920;-50
2022/02/14 05:50:21;;;;;;;;;;;-0.90;99.90;;;;;;5002372;28;20140;-50
2022/02/14 05:52:47;;;;;;;;;;;-0.80;99.90;;;;;;4998634;28;19913;-49
2022/02/14 05:55:12;;;;;;;;;;;-0.80;99.90;;;;;;5001253;28;19917;-49
2022/02/14 05:57:38;;;;;;;;;;;-0.70;99.90;;;;;;4999617;28;19920;-50
2022/02/14 06:00:05;;;;;;;;;;;-0.80;99.90;;;;;;5006012;28;19909;-50
2022/02/14 06:02:30;;;;;;;;;;;-0.70;99.90;;;;;;5003596;28;19917;-50
2022/02/14 06:04:56;;;;;;;;;;;-0.70;99.90;;;;;;4999299;28;19932;-50
2022/02/14 06:07:21;;;;;;;;;;;-0.70;99.90;;;;;;5003008;28;19913;-49
2022/02/14 06:09:47;;;;;;;;;;;-0.90;99.90;;;;;;5001743;28;19934;-50
2022/02/14 06:12:12;;;;;;;;;;;-0.90;99.90;;;;;;5000630;28;20032;-49
2022/02/14 06:14:38;;;;;;;;;;;-0.90;99.90;;;;;;5004212;28;19913;-49
2022/02/14 06:17:03;;;;;;;;;;;-0.90;99.90;;;;;;5004342;28;19921;-49
2022/02/14 06:19:29;;;;;;;;;;;-0.80;99.90;;;;;;5005045;28;20006;-51
2022/02/14 06:21:54;;;;;;;;;;;-0.80;99.90;;;;;;5007231;28;19991;-49
2022/02/14 06:24:20;;;;;;;;;;;-0.80;99.90;;;;;;5006737;28;20004;-50
2022/02/14 06:26:45;;;;;;;;;;;-0.80;99.90;;;;;;5008580;28;19937;-49
2022/02/14 06:29:11;;;;;;;;;;;-0.80;99.90;;;;;;5006369;28;19913;-51
2022/02/14 06:31:36;;;;;;;;;;;-0.80;99.90;;;;;;4999681;28;20001;-51
2022/02/14 06:34:02;;;;;;;;;;;-0.90;99.90;;;;;;5002240;28;19921;-51
2022/02/14 06:36:28;;;;;;;;;;;-0.80;99.90;;;;;;5005401;28;19910;-50
2022/02/14 06:38:54;;;;;;;;;;;-0.70;99.90;;;;;;4997579;28;20413;-48
2022/02/14 06:41:20;;;;;;;;;;;-0.70;99.90;;;;;;5004615;28;20347;-50
2022/02/14 06:43:46;;;;;;;;;;;-0.70;99.90;;;;;;4996635;28;19909;-52
2022/02/14 06:46:11;;;;;;;;;;;-0.60;99.90;;;;;;5002940;28;19999;-51
2022/02/14 06:48:37;;;;;;;;;;;-0.60;99.90;;;;;;5001045;28;19913;-48
2022/02/14 06:51:03;;;;;;;;;;;-0.60;99.90;;;;;;4996622;28;19913;-51
2022/02/14 06:53:29;;;;;;;;;;;-0.60;99.90;;;;;;5000762;28;19913;-49
2022/02/14 06:55:55;;;;;;;;;;;-0.60;99.90;;;;;;4999801;28;20024;-51
2022/02/14 06:58:20;;;;;;;;;;;-0.60;99.90;;;;;;4999892;28;20314;-49
2022/02/14 07:00:46;;;;;;;;;;;-0.60;99.90;;;;;;5004144;28;19909;-51
2022/02/14 07:03:11;;;;;;;;;;;-0.50;99.90;;;;;;5006552;28;20429;-49
2022/02/14 07:05:37;;;;;;;;;;;-0.60;99.90;;;;;;5005050;28;20442;-49
2022/02/14 07:08:03;;;;;;;;;;;-0.50;99.90;;;;;;5005181;28;19954;-51
2022/02/14 07:10:29;;;;;;;;;;;-0.50;99.90;;;;;;5004269;28;19948;-49
2022/02/14 07:12:54;;;;;;;;;;;-0.50;99.90;;;;;;5003743;28;19943;-49
2022/02/14 07:15:21;;;;;;;;;;;-0.50;99.90;;;;;;5005977;28;20338;-50
2022/02/14 07:17:48;;;;;;;;;;;-0.40;99.90;;;;;;5000953;28;20068;-50
2022/02/14 07:20:14;;;;;;;;;;;-0.40;99.90;;;;;;4997164;28;20004;-50
2022/02/14 07:22:40;;;;;;;;;;;-0.40;99.90;;;;;;5004716;28;19920;-51
2022/02/14 07:25:06;;;;;;;;;;;-0.40;99.90;;;;;;5002674;28;20317;-50
2022/02/14 07:27:32;;;;;;;;;;;-0.40;99.90;;;;;;5005301;28;19935;-49
2022/02/14 07:29:57;;;;;;;;;;;-0.30;99.90;;;;;;5009241;28;19910;-49
2022/02/14 07:32:23;;;;;;;;;;;-0.40;99.90;;;;;;5003145;28;19928;-49
2022/02/14 07:34:48;;;;;;;;;;;-0.30;99.90;;;;;;5011701;28;19944;-50
2022/02/14 07:37:14;;;;;;;;;;;-0.20;99.90;;;;;;5008682;28;19960;-51
2022/02/14 07:39:39;;;;;;;;;;;-0.10;99.90;;;;;;5008941;28;19913;-50
2022/02/14 07:42:05;;;;;;;;;;;-0.10;99.90;;;;;;5005918;28;19913;-50
2022/02/14 07:44:30;;;;;;;;;;;-0.10;99.90;;;;;;5009742;28;19913;-50
2022/02/14 07:46:56;;;;;;;;;;;0.10;99.90;;;;;;5010520;28;19912;-50
2022/02/14 07:49:22;;;;;;;;;;;0.10;99.90;;;;;;5010234;28;20036;-50
2022/02/14 07:51:48;;;;;;;;;;;0.20;99.90;;;;;;5007121;28;19932;-50
2022/02/14 07:54:14;;;;;;;;;;;0.20;99.90;;;;;;4998745;28;20166;-50
2022/02/14 07:56:40;;;;;;;;;;;0.30;99.90;;;;;;5003976;28;20357;-50
2022/02/14 07:59:06;;;;;;;;;;;0.30;99.90;;;;;;4993755;28;19952;-50
2022/02/14 08:01:32;;;;;;;;;;;0.30;99.90;;;;;;4995601;28;20297;-50
2022/02/14 08:03:57;;;;;;;;;;;0.40;99.90;;;;;;5010126;28;19916;-51
2022/02/14 08:06:23;;;;;;;;;;;0.40;99.90;;;;;;5011473;28;20427;-51
2022/02/14 08:08:49;;;;;;;;;;;0.40;99.90;;;;;;4997620;28;20427;-50
2022/02/14 08:11:16;;;;;;;;;;;0.50;99.90;;;;;;4991997;28;19971;-50
2022/02/14 08:13:42;;;;;;;;;;;0.60;99.90;;;;;;4993064;28;20016;-50
2022/02/14 08:16:07;;;;;;;;;;;0.60;99.90;;;;;;4992722;28;20036;-51
2022/02/14 08:18:33;;;;;;;;;;;0.70;99.90;;;;;;4992650;28;19905;-51
2022/02/14 08:20:58;;;;;;;;;;;0.70;99.90;;;;;;4996201;28;20015;-50
2022/02/14 08:23:24;;;;;;;;;;;0.80;99.90;;;;;;5012158;28;20040;-50
2022/02/14 08:25:49;;;;;;;;;;;0.90;99.90;;;;;;5011413;28;19973;-50
2022/02/14 08:28:16;;;;;;;;;;;1.00;99.90;;;;;;5012025;28;20286;-50
2022/02/14 08:30:42;;;;;;;;;;;1.00;99.90;;;;;;5011352;28;20346;-50
2022/02/14 08:33:10;;;;;;;;;;;1.00;99.90;;;;;;5012073;28;19910;-49
2022/02/14 08:35:36;;;;;;;;;;;1.10;99.90;;;;;;5012322;28;20052;-50
2022/02/14 08:38:02;;;;;;;;;;;1.20;99.90;;;;;;5012009;28;19906;-48
2022/02/14 08:40:28;;;;;;;;;;;1.30;99.90;;;;;;5012089;28;20388;-48
2022/02/14 08:42:53;;;;;;;;;;;1.30;99.90;;;;;;5011704;28;19960;-49
2022/02/14 08:45:19;;;;;;;;;;;1.40;99.90;;;;;;5015468;28;19913;-48
2022/02/14 08:47:45;;;;;;;;;;;1.40;99.90;;;;;;5003122;28;19917;-48
2022/02/14 08:50:10;;;;;;;;;;;1.40;99.90;;;;;;4994406;28;20358;-48
2022/02/14 08:52:36;;;;;;;;;;;1.50;99.90;;;;;;4998159;28;19905;-48
2022/02/14 08:55:01;;;;;;;;;;;1.50;99.90;;;;;;4999321;28;19913;-48
2022/02/14 08:57:28;;;;;;;;;;;1.50;99.90;;;;;;5010393;28;19996;-48
2022/02/14 08:59:54;;;;;;;;;;;1.60;99.90;;;;;;5001203;28;19913;-48
2022/02/14 09:02:19;;;;;;;;;;;1.60;99.90;;;;;;5007457;28;20361;-48
2022/02/14 09:04:45;;;;;;;;;;;1.70;99.90;;;;;;4996691;28;19953;-48
2022/02/14 09:07:11;;;;;;;;;;;1.80;99.90;;;;;;4997691;28;19948;-48
2022/02/14 09:09:36;;;;;;;;;;;1.90;99.90;;;;;;4993051;28;20439;-48
2022/02/14 09:12:02;;;;;;;;;;;2.00;99.90;;;;;;4995998;28;19928;-49
2022/02/14 09:14:28;;;;;;;;;;;2.10;99.90;;;;;;5007668;28;20537;-49
2022/02/14 09:16:53;;;;;;;;;;;2.20;99.90;;;;;;5008288;28;19952;-49
2022/02/14 09:19:19;;;;;;;;;;;2.20;99.90;;;;;;5004189;28;19916;-49
2022/02/14 09:21:45;;;;;;;;;;;2.40;99.90;;;;;;4992867;28;19916;-49
2022/02/14 09:24:12;;;;;;;;;;;2.50;99.90;;;;;;4987805;28;19905;-50
2022/02/14 09:26:38;;;;;;;;;;;2.60;99.90;;;;;;4990230;28;20514;-50
2022/02/14 09:29:04;;;;;;;;;;;2.70;99.90;;;;;;4998189;28;19916;-49
2022/02/14 09:31:30;;;;;;;;;;;2.90;99.90;;;;;;4998556;28;20365;-52
2022/02/14 09:33:56;;;;;;;;;;;3.10;99.90;;;;;;4997249;28;20469;-51
2022/02/14 09:36:21;;;;;;;;;;;3.30;99.90;;;;;;5001946;28;19987;-49
2022/02/14 09:38:49;;;;;;;;;;;3.40;99.90;;;;;;5000257;28;20673;-49
2022/02/14 09:41:16;;;;;;;;;;;3.50;99.90;;;;;;5005670;28;19905;-50
2022/02/14 09:43:44;;;;;;;;;;;3.60;99.90;;;;;;5007531;28;19905;-51
2022/02/14 09:46:11;;;;;;;;;;;3.70;99.90;;;;;;5007204;28;19916;-50
2022/02/14 09:48:37;;;;;;;;;;;3.70;99.90;;;;;;5006005;28;20003;-51
2022/02/14 09:51:02;;;;;;;;;;;3.70;99.90;;;;;;4996975;28;19988;-50
2022/02/14 09:53:28;;;;;;;;;;;3.80;99.90;;;;;;4995537;28;20293;-50
2022/02/14 09:55:54;;;;;;;;;;;3.90;99.90;;;;;;4991088;28;19961;-50
2022/02/14 09:58:19;;;;;;;;;;;4.10;99.90;;;;;;5006180;28;20343;-49
2022/02/14 10:00:45;;;;;;;;;;;4.10;99.90;;;;;;5000485;28;19909;-49
2022/02/14 10:03:10;;;;;;;;;;;4.20;99.90;;;;;;5023534;28;20092;-49
2022/02/14 10:05:41;;;;;;;;;;;4.20;99.90;;;;;;5008235;28;20372;-49
2022/02/14 10:08:06;;;;;;;;;;;4.30;99.90;;;;;;4994761;28;19909;-49
2022/02/14 10:10:32;;;;;;;;;;;4.40;99.90;;;;;;5003052;28;19936;-49
2022/02/14 10:12:59;;;;;;;;;;;4.50;99.90;;;;;;4990115;28;20414;-51
2022/02/14 10:15:25;;;;;;;;;;;4.60;97.70;;;;;;4996195;28;19960;-51
2022/02/14 10:17:52;;;;;;;;;;;4.60;97.20;;;;;;4988828;28;19914;-50
2022/02/14 10:20:22;;;;;;;;;;;4.70;95.60;;;;;;4996016;28;19944;-49
2022/02/14 10:23:03;;;;;;;;;;;4.80;84.40;;;;;;5001392;28;19972;-49
2022/02/14 10:25:29;;;;;;;;;;;5.00;86.10;;;;;;5006849;28;19963;-49
2022/02/14 10:28:11;;;;;;;;;;;5.20;78.30;;;;;;4990202;28;19993;-51
2022/02/14 10:30:52;;;;;;;;;;;5.30;76.00;;;;;;4994442;28;19921;-50
2022/02/14 10:33:18;;;;;;;;;;;5.40;75.00;;;;;;4988241;28;20483;-49
2022/02/14 10:35:47;;;;;;;;;;;5.50;75.50;;;;;;5012801;28;19948;-49
2022/02/14 10:38:13;;;;;;;;;;;5.50;77.70;;;;;;4991104;28;20012;-49
2022/02/14 10:40:40;;;;;;;;;;;5.70;71.60;;;;;;4988364;28;20063;-50
2022/02/14 10:43:07;;;;;;;;;;;5.80;78.40;;;;;;4989493;28;19905;-49
2022/02/14 10:45:34;;;;;;;;;;;5.90;77.00;;;;;;4995618;28;20059;-50
2022/02/14 10:48:02;;;;;;;;;;;5.90;73.00;;;;;;4994228;28;19956;-49
2022/02/14 10:50:27;;;;;;;;;;;5.90;79.70;;;;;;4994246;28;19916;-51
2022/02/14 10:52:54;;;;;;;;;;;6.10;78.10;;;;;;4996058;28;20238;-50
2022/02/14 10:55:21;;;;;;;;;;;6.30;67.40;;;;;;5018139;28;19913;-50
2022/02/14 10:57:48;;;;;;;;;;;6.40;70.90;;;;;;4994634;28;19913;-49
2022/02/14 11:00:14;;;;;;;;;;;6.50;72.20;;;;;;5002591;28;19916;-49
2022/02/14 11:02:44;;;;;;;;;;;6.70;68.60;;;;;;4988059;28;19921;-50
2022/02/14 11:05:10;;;;;;;;;;;6.80;62.00;;;;;;5003280;28;20398;-50
2022/02/14 11:07:37;;;;;;;;;;;7.00;60.10;;;;;;4999117;28;19937;-50
2022/02/14 11:10:03;;;;;;;;;;;7.20;61.40;;;;;;5002258;28;20058;-50
2022/02/14 11:12:30;;;;;;;;;;;7.30;61.80;;;;;;5006171;28;20395;-50
2022/02/14 11:14:57;;;;;;;;;;;7.30;58.90;;;;;;5007067;28;19909;-50
2022/02/14 11:17:25;;;;;;;;;;;7.50;59.80;;;;;;5008556;28;19913;-50
2022/02/14 11:20:11;;;;;;;;;;;7.50;61.30;;;;;;5012721;28;19913;-50
2022/02/14 11:22:37;;;;;;;;;;;7.50;62.10;;;;;;5004909;28;19955;-49
2022/02/14 11:25:06;;;;;;;;;;;7.50;62.40;;;;;;5005749;28;19932;-50
2022/02/14 11:27:34;;;;;;;;;;;7.50;63.30;;;;;;5004169;28;19921;-50
2022/02/14 11:30:05;;;;;;;;;;;7.50;63.90;;;;;;5005707;28;19953;-50
2022/02/14 11:32:38;;;;;;;;;;;7.50;59.90;;;;;;5007684;28;20366;-51
2022/02/14 11:35:14;;;;;;;;;;;7.60;60.20;;;;;;5007898;28;20314;-50
2022/02/14 11:37:50;;;;;;;;;;;7.70;58.90;;;;;;5005464;28;20285;-52
2022/02/14 11:40:29;;;;;;;;;;;7.70;60.30;;;;;;5004313;28;19909;-52
2022/02/14 11:43:09;;;;;;;;;;;7.80;57.30;;;;;;5005997;28;20461;-51
2022/02/14 11:45:35;;;;;;;;;;;7.80;60.90;;;;;;5010994;28;19916;-52
2022/02/14 11:48:20;;;;;;;;;;;7.90;60.60;;;;;;5009417;28;20354;-52
2022/02/14 11:50:45;;;;;;;;;;;7.80;60.90;;;;;;5007736;28;19924;-51
2022/02/14 11:53:30;;;;;;;;;;;7.80;61.20;;;;;;5005533;28;19996;-49
2022/02/14 11:56:14;;;;;;;;;;;7.80;62.30;;;;;;5005588;28;20525;-49
2022/02/14 11:59:10;;;;;;;;;;;8.00;62.60;;;;;;5005756;28;19917;-50
2022/02/14 12:01:39;;;;;;;;;;;8.00;61.90;;;;;;4996212;28;19960;-49
2022/02/14 12:04:23;;;;;;;;;;;8.20;62.70;;;;;;5007305;28;19913;-50
2022/02/14 12:07:07;;;;;;;;;;;8.30;64.40;;;;;;5003886;28;19920;-50
2022/02/14 12:09:52;;;;;;;;;;;8.30;60.60;;;;;;4999036;28;20016;-50
2022/02/14 12:12:38;;;;;;;;;;;8.40;58.70;;;;;;5002782;28;19926;-52
2022/02/14 12:20:45;;;;;;;;;;;8.70;56.50;;;;;;5000488;28;19921;-49
2022/02/14 12:23:11;;;;;;;;;;;8.60;55.80;;;;;;5005366;28;19913;-50
2022/02/14 12:25:46;;;;;;;;;;;8.60;55.80;;;;;;5006408;28;20370;-49
2022/02/14 12:28:12;;;;;;;;;;;8.70;57.40;;;;;;4996419;28;19910;-49
2022/02/14 12:30:40;;;;;;;;;;;8.70;57.20;;;;;;5000910;28;19920;-50
2022/02/14 12:33:06;;;;;;;;;;;8.80;56.90;;;;;;5008239;28;19909;-52
2022/02/14 12:35:33;;;;;;;;;;;8.80;56.80;;;;;;5000337;28;19914;-49
2022/02/14 12:37:59;;;;;;;;;;;8.80;56.70;;;;;;5011419;28;19915;-49
2022/02/14 12:40:25;;;;;;;;;;;8.80;58.00;;;;;;5010111;28;20278;-51
2022/02/14 12:43:00;;;;;;;;;;;8.90;58.30;;;;;;5004588;28;19917;-49
2022/02/14 12:45:25;;;;;;;;;;;9.00;57.30;;;;;;5004544;28;19913;-49
2022/02/14 12:47:51;;;;;;;;;;;9.10;57.10;;;;;;5003882;28;20472;-49
2022/02/14 12:50:19;;;;;;;;;;;9.20;56.70;;;;;;5009731;28;20007;-51
2022/02/14 12:52:47;;;;;;;;;;;9.20;54.00;;;;;;5004569;28;19914;-50
2022/02/14 12:55:14;;;;;;;;;;;9.30;55.50;;;;;;5011892;28;20354;-50
2022/02/14 12:57:48;;;;;;;;;;;9.40;50.70;;;;;;5003065;28;19906;-50
2022/02/14 13:00:31;;;;;;;;;;;9.50;53.50;;;;;;5010120;28;20374;-50
2022/02/14 13:03:01;;;;;;;;;;;9.40;49.00;;;;;;5021037;28;20373;-50
2022/02/14 13:05:27;;;;;;;;;;;9.50;48.80;;;;;;5015172;28;19909;-50
2022/02/14 13:07:54;;;;;;;;;;;9.50;48.90;;;;;;5004953;28;20321;-50
2022/02/14 13:10:20;;;;;;;;;;;9.60;48.10;;;;;;5005317;28;19923;-49
2022/02/14 13:12:46;;;;;;;;;;;9.60;48.80;;;;;;5005558;28;20286;-49
2022/02/14 13:15:13;;;;;;;;;;;9.60;52.20;;;;;;5008213;28;19913;-51
2022/02/14 13:17:38;;;;;;;;;;;9.60;49.10;;;;;;5004149;28;20647;-50
2022/02/14 13:20:07;;;;;;;;;;;9.70;50.80;;;;;;5006094;28;19914;-50
2022/02/14 13:22:38;;;;;;;;;;;9.80;49.50;;;;;;5003941;28;19920;-50
2022/02/14 13:25:19;;;;;;;;;;;9.80;50.90;;;;;;5005752;28;19916;-52
2022/02/14 13:27:46;;;;;;;;;;;9.80;49.00;;;;;;4996353;28;20378;-50
2022/02/14 13:30:12;;;;;;;;;;;9.80;51.70;;;;;;5006734;28;19955;-51
2022/02/14 13:32:39;;;;;;;;;;;9.60;50.70;;;;;;5009916;28;19971;-51
2022/02/14 13:35:06;;;;;;;;;;;9.60;51.40;;;;;;5002303;28;19913;-51
2022/02/14 13:37:50;;;;;;;;;;;9.70;50.70;;;;;;4999896;28;20592;-51
2022/02/14 13:40:28;;;;;;;;;;;9.70;51.90;;;;;;4993373;28;20012;-50
2022/02/14 13:43:03;;;;;;;;;;;9.80;50.50;;;;;;4992893;28;19910;-50
2022/02/14 13:46:01;;;;;;;;;;;9.80;52.80;;;;;;4995241;28;19944;-50
2022/02/14 13:48:28;;;;;;;;;;;9.90;52.60;;;;;;4996471;28;20368;-50
2022/02/14 13:50:58;;;;;;;;;;;9.90;50.00;;;;;;5001207;28;19917;-51
2022/02/14 13:53:24;;;;;;;;;;;10.00;50.70;;;;;;5000435;28;19909;-50
2022/02/14 13:56:03;;;;;;;;;;;10.00;50.90;;;;;;4999891;28;19916;-50
2022/02/14 13:58:29;;;;;;;;;;;10.20;50.10;;;;;;4999505;28;19948;-49
2022/02/14 14:00:54;;;;;;;;;;;10.20;52.90;;;;;;4996214;28;19993;-50
2022/02/14 14:03:23;;;;;;;;;;;10.20;51.90;;;;;;4998282;28;19959;-50
2022/02/14 14:05:49;;;;;;;;;;;10.30;51.50;;;;;;5000340;28;19910;-50
2022/02/14 14:08:31;;;;;;;;;;;10.30;51.60;;;;;;5001081;28;19909;-50
2022/02/14 14:10:56;;;;;;;;;;;10.30;52.50;;;;;;4993330;28;19956;-50
2022/02/14 14:13:36;;;;;;;;;;;10.40;52.60;;;;;;4993725;28;20062;-50
2022/02/14 14:16:01;;;;;;;;;;;10.30;53.10;;;;;;4997247;28;20586;-50
2022/02/14 14:18:26;;;;;;;;;;;10.40;52.50;;;;;;5001096;28;19937;-50
2022/02/14 14:20:52;;;;;;;;;;;10.40;52.70;;;;;;4995489;28;20053;-50
2022/02/14 14:23:17;;;;;;;;;;;10.40;53.30;;;;;;4994513;28;19909;-51
2022/02/14 14:25:44;;;;;;;;;;;10.40;53.40;;;;;;4998904;28;19913;-50
2022/02/14 14:28:09;;;;;;;;;;;10.40;53.50;;;;;;5002401;28;20130;-50
2022/02/14 14:30:35;;;;;;;;;;;10.30;54.20;;;;;;4999646;28;19917;-51
2022/02/14 14:33:00;;;;;;;;;;;10.40;55.30;;;;;;5002065;28;20329;-50